Union, Texas
Current Conditions -  °F | °C
As of 7:35 PM on Monday 24 Nov 2014 (Local Time) from KSNK Reporting Station
Clear Clear  
Wind Chill: 50°   Ceiling: Unl
Heat Index: 50°   Visibility: 10mi
Dew Point: 22°   Wind: 0mph
Humidity: 33%   Direction: NA
Pressure: 30.1"   Gusts: NA
Location:  33.0123°N, 100.833°W
Report Text: KSNK 250135Z AUTO 00000KT 10SM CLR 10/M05 A3010 RMK AO2 T01021054
Loading
Personal Weather Stations






























Interactive Weather Map New forecast layout! Learn more

10-Day Weather Forecast

Advertisements
Track Severe Weather on mobile